createdAt,value
2018-11-04T00:00:44.753Z,8.90
2018-11-04T00:03:12.303Z,8.90
2018-11-04T00:05:40.856Z,9.00
2018-11-04T00:08:08.429Z,9.00
2018-11-04T00:10:36.036Z,9.00
2018-11-04T00:13:03.879Z,9.00
2018-11-04T00:15:31.391Z,9.00
2018-11-04T00:17:58.937Z,9.00
2018-11-04T00:20:26.516Z,9.10
2018-11-04T00:22:54.032Z,9.00
2018-11-04T00:25:22.896Z,9.10
2018-11-04T00:27:50.492Z,9.10
2018-11-04T00:30:18.164Z,9.10
2018-11-04T00:32:45.732Z,9.10
2018-11-04T00:35:13.339Z,9.10
2018-11-04T00:37:40.922Z,9.10
2018-11-04T00:40:08.595Z,9.10
2018-11-04T00:42:36.583Z,9.10
2018-11-04T00:45:05.626Z,9.10
2018-11-04T00:47:33.312Z,9.10
2018-11-04T00:50:00.885Z,9.20
2018-11-04T00:52:28.825Z,9.20
2018-11-04T00:54:56.379Z,9.10
2018-11-04T00:57:24.182Z,9.10
2018-11-04T00:59:51.796Z,9.10
2018-11-04T01:02:19.419Z,9.10
2018-11-04T01:04:47.091Z,9.10
2018-11-04T01:07:14.616Z,9.10
2018-11-04T01:09:42.173Z,9.10
2018-11-04T01:12:09.752Z,9.10
2018-11-04T01:14:37.351Z,9.10
2018-11-04T01:17:04.971Z,9.10
2018-11-04T01:19:32.614Z,9.10
2018-11-04T01:22:00.168Z,9.10
2018-11-04T01:24:27.864Z,9.10
2018-11-04T01:26:55.596Z,9.10
2018-11-04T01:29:26.551Z,9.10
2018-11-04T01:31:54.139Z,9.10
2018-11-04T01:34:21.818Z,9.20
2018-11-04T01:36:49.456Z,9.20
2018-11-04T01:39:17.024Z,9.20
2018-11-04T01:41:44.599Z,9.10
2018-11-04T01:44:12.370Z,9.10
2018-11-04T01:46:41.345Z,9.10
2018-11-04T01:49:09.233Z,9.10
2018-11-04T01:51:36.747Z,9.10
2018-11-04T01:54:04.614Z,9.10
2018-11-04T01:56:32.164Z,9.10
2018-11-04T01:58:59.812Z,9.10
2018-11-04T02:01:27.452Z,9.00
2018-11-04T02:03:55.010Z,9.00
2018-11-04T02:06:23.193Z,9.00
2018-11-04T02:08:50.773Z,9.00
2018-11-04T02:11:18.376Z,9.00
2018-11-04T02:13:46.121Z,9.00
2018-11-04T02:16:13.721Z,9.00
2018-11-04T02:18:41.360Z,9.00
2018-11-04T02:21:08.970Z,9.00
2018-11-04T02:23:36.541Z,9.00
2018-11-04T02:26:04.160Z,9.00
2018-11-04T02:28:31.737Z,9.00
2018-11-04T02:30:59.317Z,9.00
2018-11-04T02:33:26.913Z,9.00
2018-11-04T02:35:54.749Z,9.00
2018-11-04T02:38:22.878Z,9.00
2018-11-04T02:40:50.444Z,9.00
2018-11-04T02:43:18.222Z,8.90
2018-11-04T02:45:45.825Z,9.00
2018-11-04T02:48:13.393Z,9.00
2018-11-04T02:50:40.998Z,9.00
2018-11-04T02:53:08.792Z,9.00
2018-11-04T02:55:36.388Z,9.00
2018-11-04T02:58:03.995Z,9.00
2018-11-04T03:00:31.575Z,9.00
2018-11-04T03:02:59.193Z,8.90
2018-11-04T03:05:26.792Z,8.90
2018-11-04T03:07:54.373Z,8.90
2018-11-04T03:10:21.996Z,8.90
2018-11-04T03:12:50.471Z,8.90
2018-11-04T03:15:18.080Z,8.90
2018-11-04T03:17:45.649Z,8.80
2018-11-04T03:20:13.482Z,8.90
2018-11-04T03:22:41.145Z,8.90
2018-11-04T03:25:08.855Z,8.90
2018-11-04T03:27:36.605Z,8.90
2018-11-04T03:30:05.040Z,8.90
2018-11-04T03:32:32.630Z,8.90
2018-11-04T03:35:00.228Z,8.90
2018-11-04T03:37:31.231Z,8.90
2018-11-04T03:39:58.821Z,8.90
2018-11-04T03:42:26.460Z,8.90
2018-11-04T03:44:54.711Z,8.90
2018-11-04T03:47:23.219Z,8.90
2018-11-04T03:49:50.785Z,8.90
2018-11-04T03:52:19.345Z,8.90
2018-11-04T03:54:46.947Z,8.80
2018-11-04T03:57:14.504Z,8.90
2018-11-04T03:59:42.078Z,8.80
2018-11-04T04:02:09.664Z,8.80
2018-11-04T04:04:37.237Z,8.90
2018-11-04T04:07:04.808Z,8.80
2018-11-04T04:09:32.418Z,8.80
2018-11-04T04:12:01.030Z,8.80
2018-11-04T04:14:28.631Z,8.80
2018-11-04T04:16:56.216Z,8.80
2018-11-04T04:19:24.231Z,8.80
2018-11-04T04:21:51.809Z,8.80
2018-11-04T04:24:19.422Z,8.80
2018-11-04T04:26:47.016Z,8.80
2018-11-04T04:29:14.777Z,8.80
2018-11-04T04:31:42.341Z,8.90
2018-11-04T04:34:09.904Z,8.80
2018-11-04T04:36:37.512Z,8.80
2018-11-04T04:39:07.592Z,8.80
2018-11-04T04:41:35.184Z,8.80
2018-11-04T04:44:02.759Z,8.80
2018-11-04T04:46:31.478Z,8.80
2018-11-04T04:48:59.220Z,8.80
2018-11-04T04:51:26.791Z,8.80
2018-11-04T04:53:54.441Z,8.70
2018-11-04T04:56:22.026Z,8.80
2018-11-04T04:58:49.620Z,8.80
2018-11-04T05:01:17.309Z,8.80
2018-11-04T05:03:44.926Z,8.80
2018-11-04T05:06:12.488Z,8.80
2018-11-04T05:08:40.167Z,8.80
2018-11-04T05:11:07.784Z,8.80
2018-11-04T05:13:35.365Z,8.80
2018-11-04T05:16:02.995Z,8.70
2018-11-04T05:18:30.556Z,8.80
2018-11-04T05:20:58.140Z,8.80
2018-11-04T05:23:25.837Z,8.80
2018-11-04T05:25:53.439Z,8.80
2018-11-04T05:28:21.038Z,8.70
2018-11-04T05:30:48.660Z,8.70
2018-11-04T05:33:16.274Z,8.70
2018-11-04T05:35:43.836Z,8.70
2018-11-04T05:38:11.417Z,8.70
2018-11-04T05:40:39.024Z,8.70
2018-11-04T05:43:06.602Z,8.70
2018-11-04T05:45:34.251Z,8.70
2018-11-04T05:48:01.860Z,8.60
2018-11-04T05:50:30.445Z,8.60
2018-11-04T05:52:58.116Z,8.60
2018-11-04T05:55:25.795Z,8.60
2018-11-04T05:57:53.411Z,8.60
2018-11-04T06:00:21.064Z,8.60
2018-11-04T06:02:48.644Z,8.60
2018-11-04T06:05:16.206Z,8.50
2018-11-04T06:07:43.830Z,8.60
2018-11-04T06:10:11.404Z,8.50
2018-11-04T06:12:39.047Z,8.60
2018-11-04T06:15:07.415Z,8.50
2018-11-04T06:17:35.164Z,8.50
2018-11-04T06:20:03.121Z,8.60
2018-11-04T06:22:30.665Z,8.60
2018-11-04T06:24:58.266Z,8.60
2018-11-04T06:27:25.914Z,8.50
2018-11-04T06:29:53.496Z,8.50
2018-11-04T06:32:21.109Z,8.50
2018-11-04T06:34:48.829Z,8.50
2018-11-04T06:37:16.281Z,8.50
2018-11-04T06:39:43.895Z,8.50
2018-11-04T06:42:11.487Z,8.60
2018-11-04T06:44:39.192Z,8.50
2018-11-04T06:47:06.803Z,8.60
2018-11-04T06:49:34.434Z,8.50
2018-11-04T06:52:02.142Z,8.50
2018-11-04T06:54:29.699Z,8.50
2018-11-04T06:56:57.285Z,8.50
2018-11-04T06:59:25.653Z,8.50
2018-11-04T07:01:53.240Z,8.60
2018-11-04T07:04:24.706Z,8.60
2018-11-04T07:06:52.420Z,8.50
2018-11-04T07:09:20.155Z,8.50
2018-11-04T07:11:48.512Z,8.60
2018-11-04T07:14:16.565Z,8.50
2018-11-04T07:16:44.501Z,8.50
2018-11-04T07:19:12.403Z,8.60
2018-11-04T07:21:40.228Z,8.60
2018-11-04T07:24:07.909Z,8.60
2018-11-04T07:26:36.189Z,8.60
2018-11-04T07:29:04.247Z,8.60
2018-11-04T07:31:31.825Z,8.60
2018-11-04T07:34:00.372Z,8.60
2018-11-04T07:36:28.204Z,8.60
2018-11-04T07:38:56.040Z,8.60
2018-11-04T07:41:24.088Z,8.60
2018-11-04T07:43:51.693Z,8.60
2018-11-04T07:46:19.669Z,8.60
2018-11-04T07:48:47.618Z,8.60
2018-11-04T07:51:15.261Z,8.60
2018-11-04T07:53:43.049Z,8.60
2018-11-04T07:56:10.645Z,8.70
2018-11-04T07:58:38.238Z,8.70
2018-11-04T08:01:05.951Z,8.70
2018-11-04T08:03:33.476Z,8.70
2018-11-04T08:06:01.025Z,8.70
2018-11-04T08:08:28.652Z,8.70
2018-11-04T08:10:56.845Z,8.70
2018-11-04T08:13:24.921Z,8.70
2018-11-04T08:15:52.488Z,8.70
2018-11-04T08:18:20.385Z,8.70
2018-11-04T08:20:48.029Z,8.70
2018-11-04T08:23:15.596Z,8.80
2018-11-04T08:25:43.240Z,8.80
2018-11-04T08:28:10.862Z,8.80
2018-11-04T08:30:38.509Z,8.80
2018-11-04T08:33:06.114Z,8.80
2018-11-04T08:35:33.725Z,8.80
2018-11-04T08:38:01.788Z,8.80
2018-11-04T08:40:29.488Z,8.80
2018-11-04T08:42:57.111Z,8.80
2018-11-04T08:45:25.090Z,8.80
2018-11-04T08:47:52.675Z,8.90
2018-11-04T08:50:20.321Z,8.90
2018-11-04T08:52:47.901Z,8.90
2018-11-04T08:55:15.492Z,8.90
2018-11-04T08:57:43.058Z,8.90
2018-11-04T09:00:13.512Z,8.90
2018-11-04T09:02:41.324Z,8.90
2018-11-04T09:05:09.202Z,8.90
2018-11-04T09:07:36.818Z,8.90
2018-11-04T09:10:07.057Z,8.90
2018-11-04T09:12:34.618Z,9.00
2018-11-04T09:15:02.209Z,9.00
2018-11-04T09:17:29.894Z,9.10
2018-11-04T09:19:57.484Z,9.10
2018-11-04T09:22:25.081Z,9.00
2018-11-04T09:24:52.617Z,9.00
2018-11-04T09:27:20.255Z,9.10
2018-11-04T09:29:48.843Z,9.00
2018-11-04T09:32:16.453Z,9.10
2018-11-04T09:34:44.207Z,9.20
2018-11-04T09:37:11.705Z,9.10
2018-11-04T09:39:39.377Z,9.20
2018-11-04T09:42:06.951Z,9.20
2018-11-04T09:44:34.608Z,9.20
2018-11-04T09:47:07.967Z,9.20
2018-11-04T09:49:35.610Z,9.30
2018-11-04T09:52:06.972Z,9.30
2018-11-04T09:54:40.373Z,9.30
2018-11-04T09:57:08.246Z,9.30
2018-11-04T09:59:35.836Z,9.40
2018-11-04T10:02:03.502Z,9.40
2018-11-04T10:04:32.120Z,9.40
2018-11-04T10:07:01.852Z,9.40
2018-11-04T10:09:29.383Z,9.40
2018-11-04T10:11:56.962Z,9.40
2018-11-04T10:14:25.055Z,9.50
2018-11-04T10:16:59.279Z,9.50
2018-11-04T10:19:51.270Z,9.50
2018-11-04T10:22:18.783Z,9.60
2018-11-04T10:24:46.404Z,9.60
2018-11-04T10:27:14.041Z,9.60
2018-11-04T10:29:42.195Z,9.60
2018-11-04T10:32:09.999Z,9.60
2018-11-04T10:34:37.633Z,9.70
2018-11-04T10:37:05.695Z,9.60
2018-11-04T10:39:34.384Z,9.60
2018-11-04T10:42:06.823Z,9.60
2018-11-04T10:44:35.582Z,9.60
2018-11-04T10:47:03.279Z,9.60
2018-11-04T10:49:30.971Z,9.60
2018-11-04T10:51:58.458Z,9.70
2018-11-04T10:54:26.371Z,9.60
2018-11-04T10:56:53.954Z,9.60
2018-11-04T10:59:21.591Z,9.60
2018-11-04T11:01:49.190Z,9.60
2018-11-04T11:04:16.809Z,9.60
2018-11-04T11:06:44.437Z,9.70
2018-11-04T11:09:12.013Z,9.70
2018-11-04T11:11:40.156Z,9.70
2018-11-04T11:14:12.088Z,9.70
2018-11-04T11:16:45.773Z,9.70
2018-11-04T11:19:28.433Z,9.70
2018-11-04T11:22:02.279Z,9.70
2018-11-04T11:24:34.768Z,9.70
2018-11-04T11:27:02.416Z,9.70
2018-11-04T11:29:30.037Z,9.70
2018-11-04T11:31:57.621Z,9.70
2018-11-04T11:34:25.454Z,9.60
2018-11-04T11:36:53.210Z,9.60
2018-11-04T11:39:20.829Z,9.60
2018-11-04T11:41:48.428Z,9.70
2018-11-04T11:44:21.877Z,9.70
2018-11-04T11:47:53.982Z,9.70
2018-11-04T11:50:23.713Z,9.70
2018-11-04T11:52:51.378Z,9.60
2018-11-04T11:55:19.131Z,9.60
2018-11-04T11:57:46.942Z,9.60
2018-11-04T12:00:14.551Z,9.70
2018-11-04T12:02:42.154Z,9.70
2018-11-04T12:05:20.166Z,9.60
2018-11-04T12:07:48.537Z,9.60
2018-11-04T12:10:16.196Z,9.60
2018-11-04T12:12:43.843Z,9.70
2018-11-04T12:15:13.956Z,9.70
2018-11-04T12:17:46.589Z,9.80
2018-11-04T12:20:20.544Z,9.80
2018-11-04T12:22:56.372Z,9.80
2018-11-04T12:25:25.157Z,9.90
2018-11-04T12:27:52.895Z,9.90
2018-11-04T12:30:25.132Z,9.90
2018-11-04T12:32:52.799Z,9.80
2018-11-04T12:35:20.546Z,9.80
2018-11-04T12:37:48.097Z,9.90
2018-11-04T12:40:15.692Z,9.80
2018-11-04T12:42:43.364Z,9.70
2018-11-04T12:45:12.029Z,9.70
2018-11-04T12:47:39.938Z,9.70
2018-11-04T12:50:08.636Z,9.70
2018-11-04T12:52:39.264Z,9.80
2018-11-04T12:55:07.553Z,9.80
2018-11-04T12:57:39.183Z,9.80
2018-11-04T13:00:10.394Z,9.80
2018-11-04T13:02:38.281Z,9.80
2018-11-04T13:05:08.386Z,9.70
2018-11-04T13:07:36.264Z,9.70
2018-11-04T13:10:05.909Z,9.60
2018-11-04T13:12:33.544Z,9.60
2018-11-04T13:15:01.146Z,9.60
2018-11-04T13:17:33.498Z,9.70
2018-11-04T13:20:01.101Z,9.70
2018-11-04T13:22:28.738Z,9.80
2018-11-04T13:24:56.317Z,9.80
2018-11-04T13:27:25.874Z,9.70
2018-11-04T13:29:57.890Z,9.70
2018-11-04T13:32:26.221Z,9.60
2018-11-04T13:34:53.810Z,9.50
2018-11-04T13:37:21.432Z,9.50
2018-11-04T13:39:50.100Z,9.50
2018-11-04T13:42:17.959Z,9.50
2018-11-04T13:44:46.604Z,9.60
2018-11-04T13:47:19.940Z,9.60
2018-11-04T13:49:51.941Z,9.60
2018-11-04T13:52:19.679Z,9.60
2018-11-04T13:54:47.893Z,9.60
2018-11-04T13:57:16.071Z,9.60
2018-11-04T13:59:43.699Z,9.50
2018-11-04T14:02:16.901Z,9.50
2018-11-04T14:04:44.526Z,9.50
2018-11-04T14:07:12.121Z,9.50
2018-11-04T14:09:40.026Z,9.50
2018-11-04T14:12:11.421Z,9.50
2018-11-04T14:14:40.140Z,9.50
2018-11-04T14:17:07.764Z,9.50
2018-11-04T14:19:35.372Z,9.50
2018-11-04T14:22:03.213Z,9.50
2018-11-04T14:24:30.819Z,9.40
2018-11-04T14:26:58.655Z,9.40
2018-11-04T14:29:26.716Z,9.30
2018-11-04T14:31:54.286Z,9.30
2018-11-04T14:34:22.032Z,9.30
2018-11-04T14:36:49.610Z,9.30
2018-11-04T14:39:17.212Z,9.20
2018-11-04T14:41:44.800Z,9.20
2018-11-04T14:44:12.486Z,9.20
2018-11-04T14:46:40.077Z,9.10
2018-11-04T14:49:07.652Z,9.00
2018-11-04T14:51:35.237Z,9.00
2018-11-04T14:54:02.868Z,9.00
2018-11-04T14:56:30.453Z,9.00
2018-11-04T14:58:58.127Z,9.00
2018-11-04T15:01:26.402Z,9.00
2018-11-04T15:03:53.940Z,9.00
2018-11-04T15:06:22.766Z,9.00
2018-11-04T15:08:50.495Z,9.00
2018-11-04T15:11:18.165Z,9.00
2018-11-04T15:13:45.760Z,9.00
2018-11-04T15:16:13.333Z,9.00
2018-11-04T15:18:40.921Z,9.00
2018-11-04T15:21:08.601Z,8.90
2018-11-04T15:23:36.221Z,8.90
2018-11-04T15:26:03.906Z,8.90
2018-11-04T15:28:31.508Z,8.90
2018-11-04T15:31:00.153Z,8.90
2018-11-04T15:33:27.725Z,8.90
2018-11-04T15:35:55.361Z,9.00
2018-11-04T15:38:23.071Z,9.00
2018-11-04T15:40:50.692Z,8.90
2018-11-04T15:43:18.375Z,8.90
2018-11-04T15:45:46.035Z,8.90
2018-11-04T15:48:13.813Z,8.90
2018-11-04T15:50:41.749Z,8.80
2018-11-04T15:53:09.342Z,8.80
2018-11-04T15:55:37.014Z,8.80
2018-11-04T15:58:05.362Z,8.80
2018-11-04T16:00:33.121Z,8.80
2018-11-04T16:03:00.916Z,8.80
2018-11-04T16:05:29.893Z,8.70
2018-11-04T16:07:57.344Z,8.70
2018-11-04T16:10:25.117Z,8.70
2018-11-04T16:12:52.721Z,8.70
2018-11-04T16:15:20.438Z,8.70
2018-11-04T16:17:49.521Z,8.70
2018-11-04T16:20:17.109Z,8.70
2018-11-04T16:22:45.379Z,8.60
2018-11-04T16:25:13.281Z,8.70
2018-11-04T16:27:41.356Z,8.70
2018-11-04T16:30:10.104Z,8.70
2018-11-04T16:32:37.990Z,8.70
2018-11-04T16:35:06.764Z,8.70
2018-11-04T16:37:34.526Z,8.70
2018-11-04T16:40:02.283Z,8.70
2018-11-04T16:42:29.952Z,8.70
2018-11-04T16:44:57.598Z,8.70
2018-11-04T16:47:25.781Z,8.70
2018-11-04T16:49:53.403Z,8.70
2018-11-04T16:52:20.967Z,8.70
2018-11-04T16:54:48.540Z,8.70
2018-11-04T16:57:16.166Z,8.70
2018-11-04T16:59:43.800Z,8.70
2018-11-04T17:02:11.412Z,8.70
2018-11-04T17:04:39.107Z,8.70
2018-11-04T17:07:06.748Z,8.70
2018-11-04T17:09:34.452Z,8.80
2018-11-04T17:12:02.086Z,8.80
2018-11-04T17:14:29.713Z,8.80
2018-11-04T17:16:57.377Z,8.80
2018-11-04T17:19:25.405Z,8.80
2018-11-04T17:21:52.970Z,8.80
2018-11-04T17:24:21.547Z,8.80
2018-11-04T17:26:49.119Z,8.80
2018-11-04T17:29:16.725Z,8.90
2018-11-04T17:31:44.324Z,8.90
2018-11-04T17:34:11.930Z,8.90
2018-11-04T17:36:39.589Z,8.90
2018-11-04T17:39:08.361Z,8.90
2018-11-04T17:41:36.036Z,9.00
2018-11-04T17:44:04.037Z,9.00
2018-11-04T17:46:31.710Z,8.90
2018-11-04T17:48:59.291Z,9.00
2018-11-04T17:51:26.925Z,9.00
2018-11-04T17:53:54.753Z,9.00
2018-11-04T17:56:22.375Z,9.00
2018-11-04T17:58:50.876Z,9.00
2018-11-04T18:01:19.741Z,9.00
2018-11-04T18:03:47.289Z,9.00
2018-11-04T18:06:14.872Z,9.10
2018-11-04T18:08:42.429Z,9.10
2018-11-04T18:11:10.012Z,9.10
2018-11-04T18:13:37.620Z,9.10
2018-11-04T18:16:05.265Z,9.10
2018-11-04T18:18:32.956Z,9.00
2018-11-04T18:21:00.729Z,9.00
2018-11-04T18:23:28.319Z,9.00
2018-11-04T18:25:55.900Z,9.00
2018-11-04T18:28:24.137Z,9.00
2018-11-04T18:30:52.050Z,9.00
2018-11-04T18:33:20.074Z,9.00
2018-11-04T18:35:47.719Z,9.00
2018-11-04T18:38:15.353Z,9.00
2018-11-04T18:40:42.979Z,9.00
2018-11-04T18:43:10.561Z,9.00
2018-11-04T18:45:38.161Z,9.00
2018-11-04T18:48:05.964Z,9.00
2018-11-04T18:50:33.769Z,9.00
2018-11-04T18:53:01.358Z,9.00
2018-11-04T18:55:28.935Z,9.00
2018-11-04T18:57:56.495Z,9.00
2018-11-04T19:00:24.465Z,9.00
2018-11-04T19:02:52.089Z,9.00
2018-11-04T19:05:19.763Z,9.00
2018-11-04T19:07:47.383Z,9.00
2018-11-04T19:10:17.215Z,9.00
2018-11-04T19:12:44.893Z,9.00
2018-11-04T19:15:12.770Z,9.00
2018-11-04T19:17:40.390Z,9.00
2018-11-04T19:20:09.426Z,9.00
2018-11-04T19:22:38.390Z,9.00
2018-11-04T19:25:06.900Z,9.00
2018-11-04T19:27:34.506Z,9.00
2018-11-04T19:30:03.063Z,8.90
2018-11-04T19:32:30.665Z,8.90
2018-11-04T19:34:58.329Z,9.00
2018-11-04T19:37:26.608Z,9.00
2018-11-04T19:39:54.102Z,9.00
2018-11-04T19:42:21.724Z,9.00
2018-11-04T19:44:49.281Z,9.00
2018-11-04T19:47:16.950Z,8.90
2018-11-04T19:49:44.536Z,8.90
2018-11-04T19:52:12.122Z,9.00
2018-11-04T19:54:39.697Z,9.00
2018-11-04T19:57:07.283Z,8.90
2018-11-04T19:59:34.953Z,8.90
2018-11-04T20:02:02.725Z,8.90
2018-11-04T20:04:30.448Z,8.90
2018-11-04T20:06:58.006Z,8.90
2018-11-04T20:09:25.850Z,8.90
2018-11-04T20:11:53.422Z,8.90
2018-11-04T20:14:22.212Z,8.90
2018-11-04T20:16:50.762Z,8.90
2018-11-04T20:19:24.343Z,8.90
2018-11-04T20:21:52.465Z,8.90
2018-11-04T20:24:25.752Z,8.90
2018-11-04T20:26:54.393Z,9.00
2018-11-04T20:29:22.240Z,8.90
2018-11-04T20:31:55.373Z,8.90
2018-11-04T20:34:23.037Z,9.00
2018-11-04T20:36:50.700Z,9.00
2018-11-04T20:39:24.287Z,9.00
2018-11-04T20:41:51.868Z,9.00
2018-11-04T20:44:19.494Z,9.00
2018-11-04T20:46:47.196Z,9.00
2018-11-04T20:49:20.526Z,9.00
2018-11-04T20:51:48.471Z,9.00
2018-11-04T20:54:15.989Z,8.90
2018-11-04T20:56:49.349Z,9.00
2018-11-04T20:59:17.085Z,8.90
2018-11-04T21:01:44.660Z,8.90
2018-11-04T21:04:12.252Z,8.90
2018-11-04T21:06:39.888Z,8.90
2018-11-04T21:09:08.959Z,8.90
2018-11-04T21:11:36.581Z,8.90
2018-11-04T21:14:04.269Z,8.90
2018-11-04T21:16:31.998Z,8.90
2018-11-04T21:18:59.592Z,8.90
2018-11-04T21:21:29.648Z,8.90
2018-11-04T21:23:57.277Z,8.90
2018-11-04T21:26:26.001Z,8.90
2018-11-04T21:28:53.731Z,8.90
2018-11-04T21:31:21.361Z,8.90
2018-11-04T21:33:48.971Z,8.90
2018-11-04T21:36:19.460Z,8.90
2018-11-04T21:38:47.284Z,8.90
2018-11-04T21:41:14.861Z,8.90
2018-11-04T21:43:42.826Z,8.90
2018-11-04T21:46:12.706Z,8.90
2018-11-04T21:48:42.182Z,8.90
2018-11-04T21:51:11.128Z,8.90
2018-11-04T21:53:40.871Z,8.90
2018-11-04T21:56:08.845Z,8.90
2018-11-04T21:58:36.678Z,8.90
2018-11-04T22:01:05.753Z,8.90
2018-11-04T22:03:34.068Z,8.90
2018-11-04T22:06:02.920Z,8.90
2018-11-04T22:08:30.734Z,8.90
2018-11-04T22:10:59.277Z,8.90
2018-11-04T22:13:28.204Z,8.90
2018-11-04T22:15:56.009Z,8.90
2018-11-04T22:18:23.926Z,8.90
2018-11-04T22:20:51.756Z,8.90
2018-11-04T22:23:19.709Z,8.90
2018-11-04T22:25:47.868Z,8.90
2018-11-04T22:28:17.889Z,8.90
2018-11-04T22:30:46.232Z,8.90
2018-11-04T22:33:14.124Z,8.90
2018-11-04T22:35:42.181Z,8.90
2018-11-04T22:38:10.064Z,8.90
2018-11-04T22:40:39.072Z,8.90
2018-11-04T22:43:07.035Z,8.90
2018-11-04T22:45:34.898Z,8.90
2018-11-04T22:48:02.917Z,8.90
2018-11-04T22:50:30.789Z,8.90
2018-11-04T22:52:58.572Z,8.90
2018-11-04T22:55:27.180Z,8.90
2018-11-04T22:57:59.573Z,8.90
2018-11-04T23:00:36.701Z,8.90
2018-11-04T23:03:06.187Z,8.90
2018-11-04T23:05:34.054Z,8.90
2018-11-04T23:08:02.354Z,8.90
2018-11-04T23:10:32.229Z,8.90
2018-11-04T23:13:01.952Z,8.90
2018-11-04T23:15:30.580Z,8.90
2018-11-04T23:17:58.396Z,8.90
2018-11-04T23:20:26.260Z,8.90
2018-11-04T23:22:54.931Z,8.80
2018-11-04T23:25:23.070Z,8.80
2018-11-04T23:27:50.936Z,8.80
2018-11-04T23:30:19.998Z,8.80
2018-11-04T23:32:52.820Z,8.80
2018-11-04T23:35:22.690Z,8.80
2018-11-04T23:37:50.500Z,8.90
2018-11-04T23:40:18.324Z,8.80
2018-11-04T23:42:46.111Z,8.90
2018-11-04T23:45:14.542Z,8.80
2018-11-04T23:47:42.813Z,8.90
2018-11-04T23:50:12.839Z,8.80
2018-11-04T23:52:40.843Z,8.90
2018-11-04T23:55:09.547Z,8.90
2018-11-04T23:57:39.491Z,8.80
